Time;durP1;ratioP1;P1;durP2;ratioP2;P2;SDS_P1;SDS_P2;PMS_P1;PMS_P2;Temp;Humidity;BMP_temperature;BMP_pressure;BME280_temperature;BME280_humidity;BME280_pressure;Samples;Min_cycle;Max_cycle;Signal;HPM_P1;HPM_P2
2020/12/15 00:02:23;;;;;;;12.52;7.28;;;;;;;;;;4992688;28;20034;-82
2020/12/15 00:04:49;;;;;;;13.48;7.63;;;;;;;;;;4990581;28;20101;-81
2020/12/15 00:07:16;;;;;;;13.95;7.50;;;;;;;;;;4990850;28;20041;-79
2020/12/15 00:09:44;;;;;;;13.43;7.68;;;;;;;;;;4990457;28;20501;-78
2020/12/15 00:12:10;;;;;;;14.25;7.35;;;;;;;;;;4992165;28;20120;-79
2020/12/15 00:14:40;;;;;;;12.18;6.93;;;;;;;;;;4974672;28;20069;-79
2020/12/15 00:17:07;;;;;;;12.02;6.57;;;;;;;;;;4996121;28;20085;-80
2020/12/15 00:19:34;;;;;;;12.05;6.43;;;;;;;;;;4978458;28;20057;-79
2020/12/15 00:22:01;;;;;;;10.73;6.13;;;;;;;;;;4996459;28;20046;-79
2020/12/15 00:24:27;;;;;;;10.80;6.40;;;;;;;;;;5009175;28;20053;-80
2020/12/15 00:26:54;;;;;;;11.93;6.53;;;;;;;;;;4992666;28;20049;-80
2020/12/15 00:29:20;;;;;;;11.55;6.13;;;;;;;;;;4992486;28;20050;-81
2020/12/15 00:31:50;;;;;;;12.65;6.72;;;;;;;;;;4978438;28;20065;-80
2020/12/15 00:34:16;;;;;;;11.15;6.18;;;;;;;;;;5010413;28;20126;-78
2020/12/15 00:36:43;;;;;;;9.88;6.00;;;;;;;;;;4996879;28;20594;-80
2020/12/15 00:39:09;;;;;;;8.88;5.25;;;;;;;;;;5010534;28;20106;-81
2020/12/15 00:41:35;;;;;;;10.63;5.68;;;;;;;;;;5013018;28;20050;-79
2020/12/15 00:44:01;;;;;;;13.07;6.10;;;;;;;;;;4994232;28;20153;-79
2020/12/15 00:46:28;;;;;;;10.13;6.22;;;;;;;;;;5008232;28;20046;-82
2020/12/15 00:48:54;;;;;;;10.55;5.63;;;;;;;;;;4993265;28;20038;-80
2020/12/15 00:51:20;;;;;;;9.63;5.45;;;;;;;;;;4992961;28;20575;-81
2020/12/15 00:53:47;;;;;;;10.73;5.72;;;;;;;;;;4993586;28;20062;-80
2020/12/15 00:56:14;;;;;;;9.40;5.35;;;;;;;;;;4974216;28;20044;-78
2020/12/15 00:58:41;;;;;;;8.48;5.40;;;;;;;;;;4993809;28;20042;-80
2020/12/15 01:01:10;;;;;;;8.43;4.95;;;;;;;;;;4976424;28;20050;-80
2020/12/15 01:03:36;;;;;;;10.18;5.50;;;;;;;;;;4993331;28;20049;-80
2020/12/15 01:06:04;;;;;;;9.20;5.18;;;;;;;;;;4973289;28;20245;-79
2020/12/15 01:08:31;;;;;;;10.50;5.32;;;;;;;;;;4991963;28;20246;-79
2020/12/15 01:11:12;;;;;;;10.48;5.55;;;;;;;;;;4990194;28;20169;-80
2020/12/15 01:13:39;;;;;;;9.40;5.18;;;;;;;;;;4994249;28;20530;-80
2020/12/15 01:16:06;;;;;;;9.02;4.75;;;;;;;;;;4992665;28;20327;-80
2020/12/15 01:18:35;;;;;;;8.88;5.13;;;;;;;;;;4993301;28;20173;-80
2020/12/15 01:21:02;;;;;;;8.23;4.95;;;;;;;;;;4991638;28;20112;-79
2020/12/15 01:23:28;;;;;;;8.40;5.03;;;;;;;;;;4989928;28;20069;-79
2020/12/15 01:25:54;;;;;;;10.80;5.55;;;;;;;;;;4971266;28;20101;-80
2020/12/15 01:28:21;;;;;;;10.32;5.25;;;;;;;;;;4974501;28;20038;-79
2020/12/15 01:30:51;;;;;;;8.38;4.93;;;;;;;;;;4990928;28;20045;-79
2020/12/15 01:33:17;;;;;;;9.25;5.30;;;;;;;;;;5006443;28;20116;-78
2020/12/15 01:35:46;;;;;;;7.82;5.13;;;;;;;;;;4972640;28;20046;-80
2020/12/15 01:38:13;;;;;;;7.80;4.97;;;;;;;;;;4991375;28;20058;-79
2020/12/15 01:40:46;;;;;;;10.52;5.05;;;;;;;;;;4989597;28;20050;-79
2020/12/15 01:43:13;;;;;;;10.27;6.10;;;;;;;;;;4992059;28;20048;-80
2020/12/15 01:45:39;;;;;;;9.55;5.60;;;;;;;;;;4992488;28;20050;-78
2020/12/15 01:48:07;;;;;;;9.50;5.32;;;;;;;;;;4992185;28;20069;-80
2020/12/15 01:50:34;;;;;;;9.38;5.28;;;;;;;;;;4993102;28;20042;-80
2020/12/15 01:53:03;;;;;;;11.13;5.80;;;;;;;;;;4991884;28;20035;-79
2020/12/15 01:55:30;;;;;;;11.25;5.85;;;;;;;;;;4988255;28;20061;-79
2020/12/15 01:57:57;;;;;;;11.00;5.55;;;;;;;;;;4974349;28;20046;-80
2020/12/15 02:00:25;;;;;;;11.07;5.50;;;;;;;;;;4991813;28;20513;-81
2020/12/15 02:02:52;;;;;;;9.10;5.47;;;;;;;;;;4990411;28;20050;-80
2020/12/15 02:05:18;;;;;;;11.10;6.15;;;;;;;;;;4993568;28;20042;-79
2020/12/15 02:07:45;;;;;;;9.80;6.07;;;;;;;;;;4995415;28;20362;-80
2020/12/15 02:10:11;;;;;;;12.27;6.50;;;;;;;;;;4990879;28;20102;-79
2020/12/15 02:12:39;;;;;;;10.90;6.25;;;;;;;;;;4997207;28;20370;-80
2020/12/15 02:15:06;;;;;;;11.15;6.28;;;;;;;;;;4998659;28;20038;-78
2020/12/15 02:17:34;;;;;;;10.93;6.05;;;;;;;;;;4995805;28;20049;-79
2020/12/15 02:20:10;;;;;;;11.68;6.72;;;;;;;;;;4995074;28;20212;-77
2020/12/15 02:22:36;;;;;;;10.75;6.25;;;;;;;;;;4976856;28;20069;-78
2020/12/15 02:25:06;;;;;;;12.65;6.93;;;;;;;;;;5008898;28;20046;-79
2020/12/15 02:27:33;;;;;;;11.95;7.05;;;;;;;;;;4995590;28;20056;-79
2020/12/15 02:29:59;;;;;;;13.02;6.40;;;;;;;;;;4979597;28;20073;-78
2020/12/15 02:32:26;;;;;;;13.60;6.80;;;;;;;;;;4996744;28;20429;-78
2020/12/15 02:34:56;;;;;;;14.13;7.05;;;;;;;;;;5013462;28;20397;-79
2020/12/15 02:37:22;;;;;;;12.80;6.65;;;;;;;;;;4975921;28;20077;-79
2020/12/15 02:39:48;;;;;;;12.32;6.72;;;;;;;;;;5007670;28;20046;-78
2020/12/15 02:42:15;;;;;;;13.43;7.03;;;;;;;;;;4993045;28;20096;-79
2020/12/15 02:44:41;;;;;;;14.20;7.45;;;;;;;;;;4993111;28;20123;-78
2020/12/15 02:47:07;;;;;;;12.00;6.80;;;;;;;;;;4993197;28;20038;-80
2020/12/15 02:49:34;;;;;;;12.82;6.82;;;;;;;;;;4994415;28;20054;-80
2020/12/15 02:52:00;;;;;;;15.57;6.97;;;;;;;;;;5009620;28;20034;-80
2020/12/15 02:54:28;;;;;;;12.27;6.50;;;;;;;;;;4992825;28;20057;-79
2020/12/15 02:56:55;;;;;;;14.02;7.88;;;;;;;;;;5008598;28;20565;-78
2020/12/15 02:59:24;;;;;;;14.05;7.40;;;;;;;;;;4994930;28;20042;-80
2020/12/15 03:01:52;;;;;;;13.27;7.30;;;;;;;;;;5011027;28;20054;-79
2020/12/15 03:04:18;;;;;;;13.80;7.57;;;;;;;;;;5007772;28;20042;-80
2020/12/15 03:06:45;;;;;;;16.20;8.32;;;;;;;;;;4979527;28;20065;-79
2020/12/15 03:09:11;;;;;;;14.90;7.88;;;;;;;;;;4978115;28;20053;-79
2020/12/15 03:11:39;;;;;;;14.80;8.18;;;;;;;;;;5001854;28;20039;-81
2020/12/15 03:14:06;;;;;;;15.80;8.63;;;;;;;;;;4997154;28;20054;-79
2020/12/15 03:16:34;;;;;;;16.33;8.40;;;;;;;;;;4992386;28;20044;-78
2020/12/15 03:19:00;;;;;;;14.30;7.88;;;;;;;;;;5008994;28;20505;-79
2020/12/15 03:21:28;;;;;;;16.30;8.73;;;;;;;;;;5008934;28;20413;-79
2020/12/15 03:23:58;;;;;;;16.98;8.52;;;;;;;;;;4992389;28;20052;-81
2020/12/15 03:26:24;;;;;;;17.92;9.10;;;;;;;;;;4993658;28;20038;-79
2020/12/15 03:28:50;;;;;;;16.63;8.93;;;;;;;;;;4994556;28;20128;-80
2020/12/15 03:31:17;;;;;;;18.10;9.65;;;;;;;;;;4993661;28;20108;-78
2020/12/15 03:33:45;;;;;;;17.45;9.63;;;;;;;;;;4994822;28;20129;-80
2020/12/15 03:36:11;;;;;;;19.08;9.48;;;;;;;;;;5009905;28;20133;-80
2020/12/15 03:38:38;;;;;;;17.50;9.40;;;;;;;;;;4994245;28;20093;-77
2020/12/15 03:41:06;;;;;;;17.35;9.73;;;;;;;;;;4991871;28;20605;-79
2020/12/15 03:43:32;;;;;;;17.42;9.13;;;;;;;;;;4977529;28;20050;-80
2020/12/15 03:45:58;;;;;;;18.63;9.70;;;;;;;;;;4977564;28;20461;-82
2020/12/15 03:48:26;;;;;;;17.48;9.52;;;;;;;;;;4994754;28;20056;-79
2020/12/15 03:50:55;;;;;;;17.60;9.48;;;;;;;;;;4978228;28;20070;-80
2020/12/15 03:53:22;;;;;;;18.98;9.38;;;;;;;;;;5009326;28;20097;-81
2020/12/15 03:55:48;;;;;;;20.15;9.38;;;;;;;;;;4974603;28;20348;-78
2020/12/15 03:58:15;;;;;;;18.67;9.65;;;;;;;;;;5007626;28;20054;-80
2020/12/15 04:00:45;;;;;;;18.60;9.88;;;;;;;;;;4992680;28;20058;-79
2020/12/15 04:03:11;;;;;;;18.27;9.77;;;;;;;;;;4976832;28;20451;-79
2020/12/15 04:05:37;;;;;;;17.05;9.63;;;;;;;;;;4976572;28;20046;-80
2020/12/15 04:08:04;;;;;;;19.73;9.27;;;;;;;;;;5008956;28;20050;-80
2020/12/15 04:10:31;;;;;;;15.95;9.18;;;;;;;;;;4993122;28;20050;-83
2020/12/15 04:12:57;;;;;;;17.15;9.50;;;;;;;;;;4976163;28;20125;-81
2020/12/15 04:15:24;;;;;;;18.23;9.35;;;;;;;;;;4977329;28;20320;-81
2020/12/15 04:17:50;;;;;;;17.35;9.30;;;;;;;;;;4976225;28;20720;-78
2020/12/15 04:20:17;;;;;;;16.73;9.48;;;;;;;;;;4993608;28;20046;-81
2020/12/15 04:22:43;;;;;;;16.35;8.93;;;;;;;;;;4994643;28;20077;-81
2020/12/15 04:25:10;;;;;;;17.02;9.30;;;;;;;;;;4992436;28;20046;-79
2020/12/15 04:27:36;;;;;;;17.33;9.18;;;;;;;;;;4992211;28;20446;-79
2020/12/15 04:30:06;;;;;;;15.52;8.85;;;;;;;;;;4996777;28;20050;-80
2020/12/15 04:32:35;;;;;;;16.38;8.82;;;;;;;;;;4998993;28;20038;-80
2020/12/15 04:35:01;;;;;;;15.20;8.40;;;;;;;;;;4995959;28;20163;-79
2020/12/15 04:37:28;;;;;;;15.98;8.75;;;;;;;;;;5007240;28;20497;-79
2020/12/15 04:39:55;;;;;;;16.73;8.77;;;;;;;;;;4993076;28;20053;-78
2020/12/15 04:42:21;;;;;;;18.75;9.02;;;;;;;;;;4993400;28;20136;-77
2020/12/15 04:44:49;;;;;;;17.60;9.60;;;;;;;;;;4976984;28;20585;-78
2020/12/15 04:47:23;;;;;;;16.98;9.10;;;;;;;;;;5008605;28;20050;-79
2020/12/15 04:50:03;;;;;;;16.48;8.57;;;;;;;;;;4994518;28;20049;-80
2020/12/15 04:52:40;;;;;;;16.85;8.95;;;;;;;;;;4995181;28;20069;-79
2020/12/15 04:55:08;;;;;;;16.38;9.23;;;;;;;;;;5014618;28;20114;-80
2020/12/15 04:57:41;;;;;;;18.20;9.43;;;;;;;;;;5019578;28;20042;-80
2020/12/15 05:00:08;;;;;;;22.60;9.98;;;;;;;;;;5005395;28;20061;-82
2020/12/15 05:02:39;;;;;;;20.50;9.65;;;;;;;;;;5021838;28;20077;-79
2020/12/15 05:05:07;;;;;;;18.63;10.43;;;;;;;;;;5022312;28;20060;-81
2020/12/15 05:07:41;;;;;;;19.55;10.23;;;;;;;;;;5003490;28;20069;-80
2020/12/15 05:10:08;;;;;;;18.08;9.63;;;;;;;;;;5003661;28;20426;-81
2020/12/15 05:12:35;;;;;;;17.92;9.75;;;;;;;;;;5005616;28;20069;-82
2020/12/15 05:15:07;;;;;;;20.17;10.10;;;;;;;;;;5006739;28;20115;-80
2020/12/15 05:17:34;;;;;;;18.67;9.82;;;;;;;;;;5003736;28;20124;-80
2020/12/15 05:20:05;;;;;;;19.33;8.88;;;;;;;;;;4986421;28;20042;-79
2020/12/15 05:22:38;;;;;;;17.10;8.95;;;;;;;;;;4989991;28;20077;-81
2020/12/15 05:25:05;;;;;;;19.00;9.45;;;;;;;;;;5001265;28;20110;-82
2020/12/15 05:27:39;;;;;;;19.70;9.23;;;;;;;;;;5005215;28;20057;-81
2020/12/15 05:30:10;;;;;;;17.02;8.82;;;;;;;;;;4989704;28;20033;-82
2020/12/15 05:32:53;;;;;;;17.88;9.38;;;;;;;;;;4972636;28;20106;-83
2020/12/15 05:35:26;;;;;;;17.10;9.20;;;;;;;;;;4988863;28;20167;-81
2020/12/15 05:37:58;;;;;;;20.10;9.30;;;;;;;;;;4977226;28;20050;-81
2020/12/15 05:40:26;;;;;;;19.60;9.98;;;;;;;;;;5000655;28;20224;-80
2020/12/15 05:42:54;;;;;;;18.15;8.93;;;;;;;;;;5003582;28;20042;-80
2020/12/15 05:45:22;;;;;;;18.63;9.95;;;;;;;;;;4988813;28;20242;-80
2020/12/15 05:47:49;;;;;;;19.10;9.40;;;;;;;;;;5003360;28;20042;-83
2020/12/15 05:50:22;;;;;;;16.85;8.82;;;;;;;;;;5006171;28;20116;-80
2020/12/15 05:52:54;;;;;;;16.83;9.02;;;;;;;;;;5003197;28;20274;-80
2020/12/15 05:55:20;;;;;;;17.00;9.25;;;;;;;;;;5001915;28;20046;-79
2020/12/15 05:57:47;;;;;;;17.70;10.10;;;;;;;;;;4998196;28;20054;-81
2020/12/15 06:00:13;;;;;;;19.50;10.05;;;;;;;;;;5011728;28;20109;-82
2020/12/15 06:02:43;;;;;;;18.60;10.02;;;;;;;;;;5022988;28;20049;-82
2020/12/15 06:05:10;;;;;;;19.02;9.60;;;;;;;;;;5022693;28;20054;-80
2020/12/15 06:07:36;;;;;;;19.92;10.25;;;;;;;;;;5019829;28;20030;-79
2020/12/15 06:10:04;;;;;;;17.63;9.70;;;;;;;;;;5029177;23;20132;-79
2020/12/15 06:12:30;;;;;;;19.10;10.43;;;;;;;;;;5011973;28;20046;-79
2020/12/15 06:14:57;;;;;;;19.52;10.00;;;;;;;;;;5019622;28;20106;-78
2020/12/15 06:17:23;;;;;;;19.00;9.93;;;;;;;;;;5020867;28;20060;-81
2020/12/15 06:19:52;;;;;;;23.10;10.52;;;;;;;;;;5013219;28;20092;-80
2020/12/15 06:22:22;;;;;;;19.52;9.93;;;;;;;;;;5013555;28;20093;-80
2020/12/15 06:24:55;;;;;;;18.77;10.02;;;;;;;;;;5002163;28;20118;-80
2020/12/15 06:27:29;;;;;;;21.80;11.00;;;;;;;;;;4999474;28;20496;-81
2020/12/15 06:29:55;;;;;;;22.00;10.98;;;;;;;;;;5021700;28;20052;-81
2020/12/15 06:32:23;;;;;;;28.95;11.20;;;;;;;;;;5007107;28;20076;-81
2020/12/15 06:34:51;;;;;;;21.17;10.90;;;;;;;;;;5008180;28;20042;-81
2020/12/15 06:37:24;;;;;;;23.73;11.55;;;;;;;;;;5005721;28;20471;-81
2020/12/15 06:39:55;;;;;;;23.42;11.00;;;;;;;;;;5020940;28;20042;-81
2020/12/15 06:42:23;;;;;;;22.88;10.98;;;;;;;;;;5023146;28;20162;-80
2020/12/15 06:45:00;;;;;;;28.00;11.77;;;;;;;;;;5001479;28;20049;-82
2020/12/15 06:47:27;;;;;;;23.73;11.35;;;;;;;;;;5013521;28;20045;-82
2020/12/15 06:49:54;;;;;;;23.80;11.68;;;;;;;;;;5017427;28;20065;-80
2020/12/15 06:52:28;;;;;;;21.08;11.65;;;;;;;;;;4999621;28;20113;-81
2020/12/15 06:54:57;;;;;;;21.50;11.65;;;;;;;;;;5018074;28;20042;-79
2020/12/15 06:57:30;;;;;;;23.42;11.52;;;;;;;;;;5017712;28;20049;-83
2020/12/15 06:59:57;;;;;;;21.25;11.40;;;;;;;;;;5022911;28;20044;-81
2020/12/15 07:02:27;;;;;;;22.20;10.85;;;;;;;;;;4990111;28;20263;-83
2020/12/15 07:05:11;;;;;;;23.42;11.88;;;;;;;;;;4982189;28;20086;-82
2020/12/15 07:07:48;;;;;;;23.98;12.35;;;;;;;;;;4984864;28;20054;-79
2020/12/15 07:10:17;;;;;;;26.02;12.15;;;;;;;;;;4962799;28;20416;-81
2020/12/15 07:12:45;;;;;;;25.48;12.07;;;;;;;;;;4982072;28;20047;-80
2020/12/15 07:15:12;;;;;;;25.70;12.65;;;;;;;;;;4965237;28;20061;-81
2020/12/15 07:17:43;;;;;;;22.50;11.50;;;;;;;;;;4967338;28;20069;-80
2020/12/15 07:20:10;;;;;;;24.63;12.43;;;;;;;;;;4966730;28;20519;-80
2020/12/15 07:22:36;;;;;;;33.15;14.95;;;;;;;;;;4965969;28;20263;-81
2020/12/15 07:25:02;;;;;;;34.17;14.82;;;;;;;;;;4966539;28;20060;-82
2020/12/15 07:27:31;;;;;;;22.42;11.55;;;;;;;;;;4969531;28;20050;-82
2020/12/15 07:29:59;;;;;;;21.25;11.05;;;;;;;;;;4991486;28;20046;-81
2020/12/15 07:32:27;;;;;;;22.73;10.98;;;;;;;;;;4983547;28;20109;-80
2020/12/15 07:35:00;;;;;;;19.45;11.20;;;;;;;;;;4982814;28;20041;-80
2020/12/15 07:37:28;;;;;;;21.00;11.13;;;;;;;;;;4997950;28;20065;-79
2020/12/15 07:39:55;;;;;;;19.83;9.90;;;;;;;;;;5018497;28;20038;-80
2020/12/15 07:42:22;;;;;;;24.98;10.20;;;;;;;;;;5017957;28;20042;-81
2020/12/15 07:44:55;;;;;;;19.60;10.70;;;;;;;;;;5002381;28;20284;-79
2020/12/15 07:47:23;;;;;;;28.67;13.85;;;;;;;;;;5003592;28;20254;-79
2020/12/15 07:49:56;;;;;;;21.70;10.20;;;;;;;;;;4968612;28;20049;-81
2020/12/15 07:52:27;;;;;;;24.67;10.85;;;;;;;;;;4999009;28;20205;-79
2020/12/15 07:55:13;;;;;;;22.48;10.73;;;;;;;;;;4999670;28;20050;-81
2020/12/15 07:57:46;;;;;;;23.55;11.73;;;;;;;;;;4999283;28;20050;-81
2020/12/15 08:00:17;;;;;;;25.40;13.80;;;;;;;;;;5002094;28;20058;-79
2020/12/15 08:02:49;;;;;;;28.77;15.63;;;;;;;;;;5001759;28;20068;-82
2020/12/15 08:05:16;;;;;;;30.83;17.25;;;;;;;;;;5002959;28;20073;-80
2020/12/15 08:07:48;;;;;;;25.80;12.63;;;;;;;;;;4999990;28;20050;-81
2020/12/15 08:10:14;;;;;;;24.48;10.95;;;;;;;;;;4969062;28;20047;-81
2020/12/15 08:12:41;;;;;;;27.40;13.38;;;;;;;;;;4982722;28;20042;-80
2020/12/15 08:15:12;;;;;;;23.88;12.18;;;;;;;;;;4981108;28;20046;-82
2020/12/15 08:17:39;;;;;;;24.02;12.07;;;;;;;;;;4980508;28;20061;-80
2020/12/15 08:20:07;;;;;;;21.08;10.57;;;;;;;;;;4983112;28;20035;-82
2020/12/15 08:22:38;;;;;;;18.75;9.95;;;;;;;;;;4982799;28;20050;-82
2020/12/15 08:25:10;;;;;;;18.33;9.75;;;;;;;;;;4981909;28;20111;-83
2020/12/15 08:27:49;;;;;;;19.85;10.40;;;;;;;;;;4982664;28;20047;-83
2020/12/15 08:30:17;;;;;;;16.67;9.20;;;;;;;;;;4983187;28;20038;-80
2020/12/15 08:32:50;;;;;;;18.08;9.27;;;;;;;;;;4965831;28;20125;-81
2020/12/15 08:35:23;;;;;;;17.30;9.85;;;;;;;;;;4967476;28;20046;-81
2020/12/15 08:37:54;;;;;;;19.73;9.73;;;;;;;;;;4992585;28;20061;-81
2020/12/15 08:40:21;;;;;;;20.90;9.82;;;;;;;;;;4980023;28;20155;-81
2020/12/15 08:42:47;;;;;;;18.83;10.20;;;;;;;;;;4967508;28;20070;-81
2020/12/15 08:45:17;;;;;;;30.30;11.32;;;;;;;;;;4999541;28;20089;-81
2020/12/15 08:47:45;;;;;;;22.40;11.57;;;;;;;;;;5001215;28;20081;-82
2020/12/15 08:50:13;;;;;;;25.83;11.27;;;;;;;;;;4999603;28;20050;-82
2020/12/15 08:52:40;;;;;;;18.85;9.30;;;;;;;;;;5002850;28;20069;-81
2020/12/15 08:55:06;;;;;;;18.63;9.32;;;;;;;;;;5000324;28;20034;-81
2020/12/15 08:57:34;;;;;;;21.55;9.80;;;;;;;;;;4997708;28;20046;-80
2020/12/15 09:00:09;;;;;;;19.92;9.10;;;;;;;;;;4990019;28;20042;-82
2020/12/15 09:02:35;;;;;;;18.75;9.20;;;;;;;;;;4989108;28;20043;-80
2020/12/15 09:05:06;;;;;;;17.52;8.80;;;;;;;;;;4979634;28;20058;-82
2020/12/15 09:07:32;;;;;;;18.85;8.77;;;;;;;;;;4985569;28;20038;-81
2020/12/15 09:10:09;;;;;;;18.92;8.43;;;;;;;;;;4994394;28;20114;-81
2020/12/15 09:12:36;;;;;;;;;;;;;;;;;;4980357;28;20060;-82
2020/12/15 09:15:03;;;;;;;16.45;8.25;;;;;;;;;;4998029;28;19929;-82
2020/12/15 09:17:32;;;;;;;17.33;8.77;;;;;;;;;;4980200;28;20047;-82
2020/12/15 09:19:59;;;;;;;19.33;8.85;;;;;;;;;;4996959;28;20039;-80
2020/12/15 09:22:25;;;;;;;16.92;8.10;;;;;;;;;;4978695;28;20118;-79
2020/12/15 09:24:51;;;;;;;16.50;8.30;;;;;;;;;;4962399;28;20047;-80
2020/12/15 09:27:21;;;;;;;18.55;8.18;;;;;;;;;;4967486;28;20069;-80
2020/12/15 09:29:48;;;;;;;15.30;7.82;;;;;;;;;;4982688;28;20042;-81
2020/12/15 09:32:17;;;;;;;21.00;7.40;;;;;;;;;;4998985;28;20046;-82
2020/12/15 09:34:43;;;;;;;18.02;8.25;;;;;;;;;;4983391;28;20058;-81
2020/12/15 09:37:10;;;;;;;19.55;7.30;;;;;;;;;;4985357;28;20049;-82
2020/12/15 09:39:44;;;;;;;17.85;7.43;;;;;;;;;;4964792;28;20566;-80
2020/12/15 09:42:20;;;;;;;;;;;;;;;;;;4967521;28;20051;-80
2020/12/15 09:44:51;;;;;;;15.55;6.82;;;;;;;;;;4983161;28;19989;-81
2020/12/15 09:47:20;;;;;;;13.63;7.47;;;;;;;;;;4983081;28;20113;-81
2020/12/15 09:49:46;;;;;;;14.77;6.82;;;;;;;;;;4968307;28;20287;-80
2020/12/15 09:52:12;;;;;;;12.43;6.80;;;;;;;;;;4986142;28;20218;-82
2020/12/15 09:54:39;;;;;;;12.02;6.50;;;;;;;;;;4953095;28;20046;-82
2020/12/15 09:57:06;;;;;;;14.40;6.50;;;;;;;;;;5001499;28;20053;-82
2020/12/15 09:59:32;;;;;;;12.18;6.47;;;;;;;;;;4989579;28;20070;-82
2020/12/15 10:01:59;;;;;;;14.25;7.03;;;;;;;;;;4990405;28;20047;-79
2020/12/15 10:04:26;;;;;;;17.20;6.75;;;;;;;;;;4971889;28;20125;-79
2020/12/15 10:06:52;;;;;;;12.30;6.70;;;;;;;;;;4974211;28;20126;-84
2020/12/15 10:09:18;;;;;;;13.70;7.63;;;;;;;;;;4986866;28;20073;-80
2020/12/15 10:11:45;;;;;;;13.63;7.82;;;;;;;;;;4990134;28;20063;-81
2020/12/15 10:14:11;;;;;;;14.80;7.15;;;;;;;;;;4954398;28;20253;-82
2020/12/15 10:16:39;;;;;;;15.73;8.18;;;;;;;;;;4965233;28;20057;-81
2020/12/15 10:19:08;;;;;;;16.60;8.00;;;;;;;;;;4981244;28;20047;-82
2020/12/15 10:21:37;;;;;;;17.92;8.23;;;;;;;;;;4983713;28;20112;-81
2020/12/15 10:24:06;;;;;;;18.77;8.10;;;;;;;;;;4962895;28;20047;-81
2020/12/15 10:26:32;;;;;;;15.93;8.75;;;;;;;;;;4984730;28;20055;-81
2020/12/15 10:28:58;;;;;;;22.88;9.40;;;;;;;;;;4984440;28;20105;-81
2020/12/15 10:31:28;;;;;;;16.55;7.90;;;;;;;;;;5002302;28;20070;-80
2020/12/15 10:33:55;;;;;;;15.57;8.30;;;;;;;;;;4986641;28;20043;-81
2020/12/15 10:36:23;;;;;;;15.68;8.32;;;;;;;;;;4985064;28;20039;-82
2020/12/15 10:38:50;;;;;;;14.82;8.18;;;;;;;;;;4990384;28;20066;-80
2020/12/15 10:41:16;;;;;;;14.77;8.10;;;;;;;;;;4995498;28;20414;-81
2020/12/15 10:43:43;;;;;;;16.80;8.23;;;;;;;;;;4977671;28;21119;-82
2020/12/15 10:46:22;;;;;;;21.85;8.95;;;;;;;;;;4991723;28;20054;-81
2020/12/15 10:48:49;;;;;;;15.60;7.88;;;;;;;;;;4993455;28;20098;-82
2020/12/15 10:51:15;;;;;;;16.25;8.20;;;;;;;;;;4973947;28;20043;-81
2020/12/15 10:53:41;;;;;;;17.05;8.20;;;;;;;;;;4991713;28;20047;-82
2020/12/15 10:56:12;;;;;;;16.90;7.85;;;;;;;;;;4972983;28;20042;-80
2020/12/15 10:58:39;;;;;;;14.60;8.10;;;;;;;;;;4996361;28;20043;-80
2020/12/15 11:01:07;;;;;;;17.25;7.70;;;;;;;;;;4991974;28;20050;-80
2020/12/15 11:03:33;;;;;;;13.38;6.53;;;;;;;;;;4993834;28;20058;-82
2020/12/15 11:06:02;;;;;;;17.67;6.88;;;;;;;;;;5002121;28;20062;-81
2020/12/15 11:08:28;;;;;;;11.18;6.65;;;;;;;;;;5000808;28;20050;-80
2020/12/15 11:10:56;;;;;;;11.40;5.80;;;;;;;;;;5002184;28;20534;-81
2020/12/15 11:13:23;;;;;;;10.10;5.60;;;;;;;;;;5004564;28;20050;-81
2020/12/15 11:15:49;;;;;;;11.90;7.00;;;;;;;;;;5004610;28;20109;-80
2020/12/15 11:18:16;;;;;;;14.35;6.80;;;;;;;;;;4988257;28;20096;-81
2020/12/15 11:20:43;;;;;;;11.80;5.28;;;;;;;;;;5002922;28;20112;-80
2020/12/15 11:23:11;;;;;;;7.88;4.47;;;;;;;;;;4979047;28;20105;-81
2020/12/15 11:25:37;;;;;;;15.07;4.22;;;;;;;;;;4994244;28;20069;-80
2020/12/15 11:28:05;;;;;;;13.60;5.50;;;;;;;;;;4987479;28;20076;-79
2020/12/15 11:30:32;;;;;;;11.82;6.05;;;;;;;;;;5001195;28;20042;-80
2020/12/15 11:32:59;;;;;;;14.80;6.35;;;;;;;;;;4996162;28;20069;-80
2020/12/15 11:35:25;;;;;;;11.75;6.43;;;;;;;;;;4968844;28;20046;-82
2020/12/15 11:37:55;;;;;;;11.45;5.57;;;;;;;;;;4983776;28;20040;-83
2020/12/15 11:40:21;;;;;;;12.57;5.40;;;;;;;;;;5001596;28;20057;-82
2020/12/15 11:42:47;;;;;;;11.88;5.50;;;;;;;;;;4998456;28;20053;-82
2020/12/15 11:45:14;;;;;;;15.35;5.85;;;;;;;;;;5026711;28;20070;-82
2020/12/15 11:47:41;;;;;;;13.43;6.15;;;;;;;;;;5025976;28;20579;-82
2020/12/15 11:50:09;;;;;;;12.82;6.05;;;;;;;;;;5024447;28;20104;-81
2020/12/15 11:52:36;;;;;;;10.63;5.60;;;;;;;;;;5023197;28;20042;-81
2020/12/15 11:55:03;;;;;;;13.02;6.10;;;;;;;;;;5004072;28;20113;-81
2020/12/15 11:57:29;;;;;;;12.88;6.25;;;;;;;;;;5005937;28;20049;-81
2020/12/15 11:59:56;;;;;;;11.75;5.53;;;;;;;;;;4967713;28;20054;-78
2020/12/15 12:02:22;;;;;;;11.00;6.00;;;;;;;;;;5003431;28;20046;-81
2020/12/15 12:04:49;;;;;;;13.65;5.82;;;;;;;;;;4989540;28;20034;-80
2020/12/15 12:07:16;;;;;;;10.85;5.80;;;;;;;;;;4999187;28;20060;-80
2020/12/15 12:09:42;;;;;;;11.65;6.18;;;;;;;;;;5000887;23;20068;-80
2020/12/15 12:12:09;;;;;;;11.38;6.13;;;;;;;;;;5012957;28;20050;-80
2020/12/15 12:14:36;;;;;;;17.83;6.18;;;;;;;;;;5014539;28;20038;-80
2020/12/15 12:17:18;;;;;;;13.10;7.20;;;;;;;;;;4996821;28;20038;-81
2020/12/15 12:19:45;;;;;;;15.90;7.20;;;;;;;;;;4986971;28;20065;-80
2020/12/15 12:22:11;;;;;;;13.70;7.80;;;;;;;;;;4998514;28;20041;-79
2020/12/15 12:24:41;;;;;;;15.68;8.68;;;;;;;;;;5006966;28;20057;-79
2020/12/15 12:27:07;;;;;;;17.00;9.43;;;;;;;;;;4992301;28;20559;-80
2020/12/15 12:29:33;;;;;;;17.75;9.18;;;;;;;;;;4993390;28;20042;-80
2020/12/15 12:32:00;;;;;;;16.23;8.50;;;;;;;;;;5000447;28;20037;-79
2020/12/15 12:34:30;;;;;;;17.42;9.23;;;;;;;;;;4984924;28;20498;-78
2020/12/15 12:36:56;;;;;;;20.52;9.13;;;;;;;;;;5023980;28;20521;-79
2020/12/15 12:39:23;;;;;;;18.83;9.75;;;;;;;;;;5009681;28;20110;-80
2020/12/15 12:41:50;;;;;;;15.88;8.95;;;;;;;;;;5000247;28;20064;-79
2020/12/15 12:44:16;;;;;;;20.38;9.38;;;;;;;;;;5011984;28;20490;-79
2020/12/15 12:46:51;;;;;;;23.38;10.45;;;;;;;;;;4995490;28;20433;-79
2020/12/15 12:49:17;;;;;;;24.52;10.30;;;;;;;;;;4992406;28;20281;-80
2020/12/15 12:51:44;;;;;;;24.35;9.80;;;;;;;;;;5011450;28;20382;-78
2020/12/15 12:54:12;;;;;;;21.35;9.93;;;;;;;;;;4991376;28;20382;-80
2020/12/15 12:56:41;;;;;;;17.13;9.73;;;;;;;;;;4992375;28;20504;-80
2020/12/15 12:59:08;;;;;;;19.90;9.98;;;;;;;;;;5012243;28;20054;-79
2020/12/15 13:01:35;;;;;;;18.75;9.73;;;;;;;;;;4995348;28;20052;-78
2020/12/15 13:04:01;;;;;;;23.10;10.85;;;;;;;;;;4998366;28;20100;-81
2020/12/15 13:06:29;;;;;;;18.08;10.50;;;;;;;;;;4996425;28;20112;-80
2020/12/15 13:08:58;;;;;;;21.50;11.02;;;;;;;;;;4993825;28;20488;-79
2020/12/15 13:11:23;;;;;;;18.05;10.30;;;;;;;;;;4977571;28;20370;-79
2020/12/15 13:13:51;;;;;;;19.95;10.23;;;;;;;;;;4994924;28;20053;-77
2020/12/15 13:16:17;;;;;;;19.65;11.23;;;;;;;;;;4995802;28;20049;-79
2020/12/15 13:18:45;;;;;;;22.77;10.57;;;;;;;;;;4993882;28;20081;-79
2020/12/15 13:21:15;;;;;;;20.23;10.27;;;;;;;;;;5006797;28;20110;-79
2020/12/15 13:23:43;;;;;;;22.20;10.77;;;;;;;;;;5014678;28;20097;-78
2020/12/15 13:26:13;;;;;;;21.85;10.15;;;;;;;;;;4984571;28;20448;-79
2020/12/15 13:28:40;;;;;;;21.48;9.98;;;;;;;;;;5002984;28;20052;-80
2020/12/15 13:31:08;;;;;;;19.52;10.68;;;;;;;;;;4965225;28;20045;-78
2020/12/15 13:33:34;;;;;;;20.17;10.90;;;;;;;;;;5003843;28;20370;-79
2020/12/15 13:36:01;;;;;;;21.58;10.70;;;;;;;;;;4992514;28;20045;-78
2020/12/15 13:38:27;;;;;;;18.00;10.15;;;;;;;;;;4991225;28;20114;-77
2020/12/15 13:40:54;;;;;;;27.42;10.10;;;;;;;;;;4973620;28;20050;-79
2020/12/15 13:43:20;;;;;;;18.23;9.80;;;;;;;;;;4985778;28;20427;-77
2020/12/15 13:45:47;;;;;;;18.17;9.95;;;;;;;;;;5002789;28;20245;-77
2020/12/15 13:48:14;;;;;;;23.45;10.88;;;;;;;;;;5023816;28;20463;-79
2020/12/15 13:50:41;;;;;;;19.10;10.02;;;;;;;;;;4986001;28;20458;-76
2020/12/15 13:53:08;;;;;;;23.83;10.50;;;;;;;;;;5009181;28;20038;-79
2020/12/15 13:55:44;;;;;;;18.55;10.43;;;;;;;;;;4975721;28;20046;-76
2020/12/15 13:58:15;;;;;;;28.08;11.20;;;;;;;;;;5006560;28;20081;-78
2020/12/15 14:00:41;;;;;;;23.90;10.77;;;;;;;;;;4994615;28;20448;-78
2020/12/15 14:03:11;;;;;;;17.70;10.13;;;;;;;;;;4996780;28;20313;-78
2020/12/15 14:05:43;;;;;;;20.10;10.40;;;;;;;;;;5027181;28;20049;-79
2020/12/15 14:08:09;;;;;;;20.88;10.75;;;;;;;;;;5012384;28;20049;-77
2020/12/15 14:10:36;;;;;;;19.63;10.10;;;;;;;;;;5012344;28;20033;-81
2020/12/15 14:13:03;;;;;;;21.92;10.13;;;;;;;;;;5012370;28;20042;-80
2020/12/15 14:15:30;;;;;;;18.88;10.48;;;;;;;;;;5014535;28;20034;-78
2020/12/15 14:17:59;;;;;;;19.73;11.35;;;;;;;;;;5012512;28;20080;-78
2020/12/15 14:20:26;;;;;;;21.17;10.75;;;;;;;;;;5013342;28;20409;-77
2020/12/15 14:22:52;;;;;;;20.15;10.57;;;;;;;;;;5012535;28;20034;-78
2020/12/15 14:25:18;;;;;;;17.17;10.00;;;;;;;;;;4993972;28;20389;-77
2020/12/15 14:27:44;;;;;;;20.08;11.15;;;;;;;;;;5010255;28;20416;-79
2020/12/15 14:30:12;;;;;;;22.65;10.43;;;;;;;;;;5011450;28;20473;-78
2020/12/15 14:32:39;;;;;;;22.65;10.63;;;;;;;;;;5012378;28;20046;-77
2020/12/15 14:35:05;;;;;;;21.90;10.18;;;;;;;;;;5006361;28;20042;-79